createdAt,value
2018-08-04T00:00:30.414Z,25.45
2018-08-04T00:01:30.392Z,25.43
2018-08-04T00:02:30.380Z,25.36
2018-08-04T00:03:30.370Z,25.39
2018-08-04T00:04:30.371Z,25.35
2018-08-04T00:05:30.363Z,25.38
2018-08-04T00:06:30.349Z,25.39
2018-08-04T00:07:30.324Z,25.33
2018-08-04T00:08:30.313Z,25.30
2018-08-04T00:09:30.303Z,25.28
2018-08-04T00:10:30.312Z,25.30
2018-08-04T00:11:30.282Z,25.25
2018-08-04T00:12:30.273Z,25.21
2018-08-04T00:13:30.273Z,25.18
2018-08-04T00:14:30.257Z,25.10
2018-08-04T00:15:30.239Z,25.27
2018-08-04T00:16:30.228Z,25.18
2018-08-04T00:17:30.215Z,25.18
2018-08-04T00:18:30.220Z,25.18
2018-08-04T00:19:30.198Z,25.15
2018-08-04T00:20:30.200Z,25.20
2018-08-04T00:21:30.178Z,25.14
2018-08-04T00:22:30.166Z,25.03
2018-08-04T00:23:30.166Z,25.10
2018-08-04T00:24:30.141Z,25.10
2018-08-04T00:25:30.133Z,25.13
2018-08-04T00:26:30.136Z,25.03
2018-08-04T00:27:30.109Z,25.06
2018-08-04T00:28:30.098Z,25.05
2018-08-04T00:29:30.089Z,25.09
2018-08-04T00:30:30.076Z,25.09
2018-08-04T00:31:30.084Z,25.08
2018-08-04T00:32:30.060Z,25.08
2018-08-04T00:33:30.045Z,25.03
2018-08-04T00:34:30.034Z,25.05
2018-08-04T00:35:30.026Z,25.02
2018-08-04T00:36:30.030Z,25.05
2018-08-04T00:37:30.005Z,25.05
2018-08-04T00:38:29.993Z,25.06
2018-08-04T00:39:29.993Z,24.99
2018-08-04T00:40:29.968Z,25.02
2018-08-04T00:41:29.959Z,25.00
2018-08-04T00:42:29.950Z,25.00
2018-08-04T00:43:29.957Z,24.96
2018-08-04T00:44:29.936Z,24.85
2018-08-04T00:45:29.939Z,24.99
2018-08-04T00:46:29.903Z,24.91
2018-08-04T00:47:29.894Z,24.84
2018-08-04T00:48:29.883Z,24.87
2018-08-04T00:49:29.894Z,24.84
2018-08-04T00:50:29.862Z,24.65
2018-08-04T00:51:29.860Z,24.76
2018-08-04T00:52:29.839Z,24.68
2018-08-04T00:53:29.835Z,24.68
2018-08-04T00:54:29.819Z,24.60
2018-08-04T00:55:29.835Z,24.60
2018-08-04T00:56:29.796Z,24.68
2018-08-04T00:57:29.786Z,24.67
2018-08-04T00:58:29.775Z,24.58
2018-08-04T00:59:29.765Z,24.50
2018-08-04T01:00:29.756Z,24.46
2018-08-04T01:01:29.760Z,24.46
2018-08-04T01:02:29.737Z,24.42
2018-08-04T01:03:29.722Z,24.40
2018-08-04T01:04:29.713Z,24.39
2018-08-04T01:05:29.727Z,24.35
2018-08-04T01:06:29.692Z,24.37
2018-08-04T01:07:29.679Z,24.30
2018-08-04T01:08:29.668Z,24.30
2018-08-04T01:09:29.658Z,24.24
2018-08-04T01:10:29.647Z,24.21
2018-08-04T01:11:29.658Z,24.30
2018-08-04T01:12:29.628Z,24.09
2018-08-04T01:13:29.616Z,24.12
2018-08-04T01:14:29.606Z,24.02
2018-08-04T01:15:29.593Z,24.03
2018-08-04T01:16:29.583Z,23.97
2018-08-04T01:17:29.589Z,23.97
2018-08-04T01:18:29.564Z,23.85
2018-08-04T01:19:29.552Z,23.87
2018-08-04T01:20:29.540Z,23.85
2018-08-04T01:21:29.542Z,23.78
2018-08-04T01:22:29.520Z,23.85
2018-08-04T01:23:29.507Z,23.69
2018-08-04T01:24:29.512Z,23.84
2018-08-04T01:25:29.486Z,23.83
2018-08-04T01:26:29.479Z,23.83
2018-08-04T01:27:29.486Z,23.73
2018-08-04T01:28:29.456Z,23.78
2018-08-04T01:29:29.442Z,23.73
2018-08-04T01:30:29.436Z,23.72
2018-08-04T01:31:29.424Z,23.61
2018-08-04T01:32:29.412Z,23.61
2018-08-04T01:33:29.419Z,23.51
2018-08-04T01:34:29.388Z,23.55
2018-08-04T01:35:29.400Z,23.54
2018-08-04T01:36:29.369Z,23.47
2018-08-04T01:37:29.362Z,23.50
2018-08-04T01:38:29.350Z,23.51
2018-08-04T01:39:29.339Z,23.42
2018-08-04T01:40:29.329Z,23.46
2018-08-04T01:41:29.329Z,23.38
2018-08-04T01:42:29.305Z,23.32
2018-08-04T01:43:29.336Z,23.38
2018-08-04T01:44:29.283Z,23.36
2018-08-04T01:45:29.275Z,23.39
2018-08-04T01:46:29.264Z,23.35
2018-08-04T01:47:29.251Z,23.36
2018-08-04T01:48:30.259Z,23.32
2018-08-04T01:49:29.233Z,23.38
2018-08-04T01:50:29.219Z,23.31
2018-08-04T01:51:29.208Z,23.31
2018-08-04T01:52:29.198Z,23.36
2018-08-04T01:53:29.189Z,23.28
2018-08-04T01:54:29.193Z,23.12
2018-08-04T01:55:29.169Z,23.22
2018-08-04T01:56:29.158Z,23.20
2018-08-04T01:57:29.184Z,23.20
2018-08-04T01:58:29.150Z,23.17
2018-08-04T01:59:29.124Z,23.20
2018-08-04T02:00:29.141Z,23.07
2018-08-04T02:01:29.102Z,23.09
2018-08-04T02:02:29.094Z,23.09
2018-08-04T02:03:29.084Z,23.01
2018-08-04T02:04:29.107Z,23.10
2018-08-04T02:05:29.058Z,23.10
2018-08-04T02:06:29.048Z,23.02
2018-08-04T02:07:29.039Z,22.97
2018-08-04T02:08:29.029Z,22.95
2018-08-04T02:09:29.019Z,23.04
2018-08-04T02:10:29.021Z,23.02
2018-08-04T02:11:28.996Z,22.90
2018-08-04T02:12:28.986Z,22.85
2018-08-04T02:13:28.975Z,22.86
2018-08-04T02:14:29.004Z,22.85
2018-08-04T02:15:28.955Z,22.88
2018-08-04T02:16:28.942Z,22.91
2018-08-04T02:17:28.934Z,22.90
2018-08-04T02:18:28.925Z,22.85
2018-08-04T02:19:28.919Z,22.75
2018-08-04T02:20:28.916Z,22.80
2018-08-04T02:21:28.886Z,22.73
2018-08-04T02:22:28.905Z,22.73
2018-08-04T02:23:28.868Z,22.76
2018-08-04T02:24:28.857Z,22.77
2018-08-04T02:25:28.847Z,22.75
2018-08-04T02:26:28.838Z,22.72
2018-08-04T02:27:28.825Z,22.77
2018-08-04T02:28:28.827Z,22.70
2018-08-04T02:29:28.804Z,22.65
2018-08-04T02:30:28.790Z,22.67
2018-08-04T02:31:28.780Z,22.55
2018-08-04T02:32:28.773Z,22.58
2018-08-04T02:33:28.776Z,22.62
2018-08-04T02:34:28.748Z,22.52
2018-08-04T02:35:28.774Z,22.40
2018-08-04T02:36:28.726Z,22.45
2018-08-04T02:37:28.716Z,22.43
2018-08-04T02:38:28.704Z,22.42
2018-08-04T02:39:28.693Z,22.46
2018-08-04T02:40:28.685Z,22.39
2018-08-04T02:41:28.707Z,22.40
2018-08-04T02:42:28.663Z,22.40
2018-08-04T02:43:28.658Z,22.37
2018-08-04T02:44:28.654Z,22.42
2018-08-04T02:45:28.629Z,22.36
2018-08-04T02:46:28.960Z,22.36
2018-08-04T02:47:28.608Z,22.25
2018-08-04T02:48:28.597Z,22.24
2018-08-04T02:49:28.592Z,22.22
2018-08-04T02:50:28.575Z,22.25
2018-08-04T02:51:28.589Z,22.27
2018-08-04T02:52:28.552Z,22.24
2018-08-04T02:53:28.543Z,22.25
2018-08-04T02:54:28.533Z,22.28
2018-08-04T02:55:28.523Z,22.28
2018-08-04T02:56:28.515Z,22.22
2018-08-04T02:57:28.511Z,22.27
2018-08-04T02:58:28.484Z,22.25
2018-08-04T02:59:28.488Z,22.25
2018-08-04T03:00:28.464Z,22.22
2018-08-04T03:01:28.478Z,22.15
2018-08-04T03:02:28.442Z,22.22
2018-08-04T03:03:28.433Z,22.12
2018-08-04T03:04:28.420Z,22.14
2018-08-04T03:05:28.408Z,22.06
2018-08-04T03:06:28.399Z,22.10
2018-08-04T03:07:28.404Z,22.17
2018-08-04T03:08:28.424Z,22.07
2018-08-04T03:09:28.366Z,22.09
2018-08-04T03:10:28.355Z,22.14
2018-08-04T03:11:28.376Z,22.06
2018-08-04T03:12:28.342Z,21.94
2018-08-04T03:13:28.322Z,22.05
2018-08-04T03:14:28.321Z,22.07
2018-08-04T03:15:28.301Z,22.07
2018-08-04T03:16:28.290Z,22.06
2018-08-04T03:17:28.301Z,22.05
2018-08-04T03:18:28.265Z,22.02
2018-08-04T03:19:28.254Z,21.96
2018-08-04T03:20:28.246Z,21.96
2018-08-04T03:21:28.233Z,21.99
2018-08-04T03:22:28.221Z,21.98
2018-08-04T03:23:28.223Z,21.99
2018-08-04T03:24:28.203Z,21.98
2018-08-04T03:25:28.188Z,21.88
2018-08-04T03:26:28.191Z,21.82
2018-08-04T03:27:28.167Z,21.80
2018-08-04T03:28:28.168Z,21.86
2018-08-04T03:29:28.150Z,21.88
2018-08-04T03:30:28.138Z,21.90
2018-08-04T03:31:28.145Z,21.90
2018-08-04T03:32:28.114Z,21.86
2018-08-04T03:33:28.111Z,21.75
2018-08-04T03:34:28.093Z,21.79
2018-08-04T03:35:28.080Z,21.74
2018-08-04T03:36:28.078Z,21.77
2018-08-04T03:37:28.059Z,21.79
2018-08-04T03:38:28.058Z,21.77
2018-08-04T03:39:28.033Z,21.80
2018-08-04T03:40:28.022Z,21.79
2018-08-04T03:41:28.010Z,21.86
2018-08-04T03:42:27.997Z,21.84
2018-08-04T03:43:28.003Z,21.84
2018-08-04T03:44:27.975Z,21.72
2018-08-04T03:45:27.967Z,21.92
2018-08-04T03:46:27.956Z,21.83
2018-08-04T03:47:27.943Z,21.91
2018-08-04T03:48:27.946Z,21.84
2018-08-04T03:49:27.935Z,21.72
2018-08-04T03:50:27.908Z,21.83
2018-08-04T03:51:27.900Z,21.80
2018-08-04T03:52:27.889Z,21.75
2018-08-04T03:53:27.901Z,21.77
2018-08-04T03:54:27.864Z,21.86
2018-08-04T03:55:27.855Z,21.74
2018-08-04T03:56:27.841Z,21.90
2018-08-04T03:57:27.830Z,21.88
2018-08-04T03:58:27.819Z,21.83
2018-08-04T03:59:27.829Z,21.90
2018-08-04T04:00:27.800Z,21.91
2018-08-04T04:01:27.788Z,21.84
2018-08-04T04:02:27.778Z,22.00
2018-08-04T04:03:27.763Z,21.90
2018-08-04T04:04:27.756Z,21.90
2018-08-04T04:05:27.757Z,21.88
2018-08-04T04:06:27.730Z,21.90
2018-08-04T04:07:27.723Z,21.92
2018-08-04T04:08:27.709Z,21.99
2018-08-04T04:09:27.701Z,21.99
2018-08-04T04:10:27.703Z,21.96
2018-08-04T04:11:27.676Z,21.96
2018-08-04T04:12:27.665Z,21.96
2018-08-04T04:13:27.659Z,22.03
2018-08-04T04:14:27.644Z,22.07
2018-08-04T04:15:27.651Z,22.03
2018-08-04T04:16:27.622Z,22.03
2018-08-04T04:17:27.612Z,22.09
2018-08-04T04:18:27.606Z,22.06
2018-08-04T04:19:27.591Z,22.07
2018-08-04T04:20:27.579Z,22.12
2018-08-04T04:21:27.585Z,22.03
2018-08-04T04:22:27.574Z,22.12
2018-08-04T04:23:27.549Z,22.12
2018-08-04T04:24:27.538Z,22.17
2018-08-04T04:25:27.528Z,22.17
2018-08-04T04:26:27.550Z,22.20
2018-08-04T04:27:27.506Z,22.30
2018-08-04T04:28:27.492Z,22.24
2018-08-04T04:29:27.482Z,22.24
2018-08-04T04:30:27.473Z,22.25
2018-08-04T04:31:27.460Z,22.35
2018-08-04T04:32:27.469Z,22.36
2018-08-04T04:33:27.439Z,22.33
2018-08-04T04:34:27.430Z,22.37
2018-08-04T04:35:27.421Z,22.46
2018-08-04T04:36:27.408Z,22.45
2018-08-04T04:37:27.395Z,22.30
2018-08-04T04:38:27.394Z,22.31
2018-08-04T04:39:27.376Z,22.27
2018-08-04T04:40:27.365Z,22.28
2018-08-04T04:41:27.358Z,22.30
2018-08-04T04:42:27.344Z,22.27
2018-08-04T04:43:27.345Z,22.37
2018-08-04T04:44:27.333Z,22.46
2018-08-04T04:45:27.310Z,22.51
2018-08-04T04:46:27.302Z,22.55
2018-08-04T04:47:27.292Z,22.57
2018-08-04T04:48:27.324Z,22.64
2018-08-04T04:49:27.269Z,22.58
2018-08-04T04:50:27.259Z,22.73
2018-08-04T04:51:27.248Z,22.61
2018-08-04T04:52:27.234Z,22.68
2018-08-04T04:53:27.227Z,22.57
2018-08-04T04:54:27.226Z,22.60
2018-08-04T04:55:27.239Z,22.52
2018-08-04T04:56:27.194Z,22.52
2018-08-04T04:57:27.181Z,22.54
2018-08-04T04:58:27.171Z,22.64
2018-08-04T04:59:27.179Z,22.67
2018-08-04T05:00:27.153Z,22.73
2018-08-04T05:01:27.137Z,22.75
2018-08-04T05:02:27.131Z,22.83
2018-08-04T05:03:27.118Z,22.91
2018-08-04T05:04:27.107Z,22.91
2018-08-04T05:05:27.108Z,23.00
2018-08-04T05:06:27.087Z,22.94
2018-08-04T05:07:27.087Z,22.97
2018-08-04T05:08:27.062Z,23.02
2018-08-04T05:09:27.055Z,22.98
2018-08-04T05:10:27.057Z,23.04
2018-08-04T05:11:27.034Z,23.02
2018-08-04T05:12:27.022Z,23.01
2018-08-04T05:13:27.040Z,23.10
2018-08-04T05:14:27.014Z,23.07
2018-08-04T05:15:27.029Z,23.16
2018-08-04T05:16:26.980Z,23.13
2018-08-04T05:17:26.969Z,23.22
2018-08-04T05:18:26.956Z,23.19
2018-08-04T05:19:26.949Z,23.28
2018-08-04T05:20:26.937Z,23.27
2018-08-04T05:21:26.953Z,23.32
2018-08-04T05:22:26.916Z,23.32
2018-08-04T05:23:26.902Z,23.39
2018-08-04T05:24:26.889Z,23.46
2018-08-04T05:25:26.896Z,23.43
2018-08-04T05:26:26.869Z,23.43
2018-08-04T05:27:26.872Z,23.40
2018-08-04T05:28:26.853Z,23.47
2018-08-04T05:29:26.840Z,23.42
2018-08-04T05:30:26.832Z,23.46
2018-08-04T05:31:26.818Z,23.54
2018-08-04T05:32:26.818Z,23.60
2018-08-04T05:33:26.799Z,23.53
2018-08-04T05:34:26.787Z,23.54
2018-08-04T05:35:26.793Z,23.63
2018-08-04T05:36:26.765Z,23.55
2018-08-04T05:37:26.758Z,23.60
2018-08-04T05:38:26.741Z,23.57
2018-08-04T05:39:26.731Z,23.57
2018-08-04T05:40:26.721Z,23.61
2018-08-04T05:41:26.724Z,23.69
2018-08-04T05:42:26.722Z,23.70
2018-08-04T05:43:26.763Z,23.69
2018-08-04T05:44:26.678Z,23.72
2018-08-04T05:45:26.668Z,23.69
2018-08-04T05:46:26.657Z,23.78
2018-08-04T05:47:26.647Z,23.79
2018-08-04T05:48:26.643Z,23.78
2018-08-04T05:49:26.626Z,23.78
2018-08-04T05:50:26.613Z,23.79
2018-08-04T05:51:26.603Z,23.80
2018-08-04T05:52:26.604Z,23.83
2018-08-04T05:53:26.578Z,23.85
2018-08-04T05:54:26.569Z,23.85
2018-08-04T05:55:26.572Z,23.90
2018-08-04T05:56:26.558Z,23.93
2018-08-04T05:57:26.538Z,23.80
2018-08-04T05:58:26.533Z,23.87
2018-08-04T05:59:26.517Z,23.94
2018-08-04T06:00:26.506Z,23.98
2018-08-04T06:01:26.508Z,23.94
2018-08-04T06:02:26.481Z,23.94
2018-08-04T06:03:26.473Z,23.91
2018-08-04T06:04:26.459Z,23.80
2018-08-04T06:05:26.455Z,23.94
2018-08-04T06:06:26.438Z,23.98
2018-08-04T06:07:26.446Z,23.94
2018-08-04T06:08:26.433Z,24.02
2018-08-04T06:09:26.406Z,24.02
2018-08-04T06:10:26.396Z,24.05
2018-08-04T06:11:26.384Z,24.08
2018-08-04T06:12:26.375Z,24.16
2018-08-04T06:13:26.364Z,24.21
2018-08-04T06:14:26.364Z,24.28
2018-08-04T06:15:26.341Z,24.42
2018-08-04T06:16:26.331Z,24.40
2018-08-04T06:17:26.343Z,24.53
2018-08-04T06:18:26.312Z,24.71
2018-08-04T06:19:26.299Z,25.02
2018-08-04T06:20:26.287Z,25.14
2018-08-04T06:21:26.278Z,25.17
2018-08-04T06:22:26.289Z,25.61
2018-08-04T06:23:26.268Z,26.01
2018-08-04T06:24:26.243Z,26.54
2018-08-04T06:25:26.249Z,26.67
2018-08-04T06:26:26.221Z,26.73
2018-08-04T06:27:26.221Z,26.97
2018-08-04T06:28:26.215Z,26.76
2018-08-04T06:29:26.192Z,26.48
2018-08-04T06:30:26.185Z,26.36
2018-08-04T06:31:26.170Z,26.20
2018-08-04T06:32:26.157Z,25.94
2018-08-04T06:33:26.160Z,25.76
2018-08-04T06:34:26.138Z,25.80
2018-08-04T06:35:26.139Z,25.61
2018-08-04T06:36:26.116Z,25.73
2018-08-04T06:37:26.106Z,25.77
2018-08-04T06:38:26.096Z,25.79
2018-08-04T06:39:26.088Z,25.97
2018-08-04T06:40:26.096Z,26.10
2018-08-04T06:41:26.064Z,26.33
2018-08-04T06:42:26.063Z,26.51
2018-08-04T06:43:26.046Z,26.66
2018-08-04T06:44:26.042Z,26.94
2018-08-04T06:45:26.025Z,27.17
2018-08-04T06:46:26.026Z,27.43
2018-08-04T06:47:26.006Z,27.74
2018-08-04T06:48:25.993Z,27.82
2018-08-04T06:49:25.982Z,28.03
2018-08-04T06:50:25.988Z,28.09
2018-08-04T06:51:25.971Z,28.03
2018-08-04T06:52:25.954Z,27.88
2018-08-04T06:53:25.943Z,27.66
2018-08-04T06:54:25.935Z,27.57
2018-08-04T06:55:25.920Z,27.31
2018-08-04T06:56:25.928Z,27.10
2018-08-04T06:57:25.901Z,27.37
2018-08-04T06:58:25.928Z,27.77
2018-08-04T06:59:25.875Z,27.87
2018-08-04T07:00:25.864Z,28.29
2018-08-04T07:01:25.853Z,28.59
2018-08-04T07:02:25.880Z,28.85
2018-08-04T07:03:25.831Z,28.96
2018-08-04T07:04:25.823Z,28.95
2018-08-04T07:05:25.823Z,29.08
2018-08-04T07:06:25.801Z,29.28
2018-08-04T07:07:25.787Z,29.28
2018-08-04T07:08:25.789Z,29.33
2018-08-04T07:09:25.767Z,29.31
2018-08-04T07:10:25.759Z,29.33
2018-08-04T07:11:25.743Z,29.14
2018-08-04T07:12:25.746Z,29.23
2018-08-04T07:13:25.777Z,29.30
2018-08-04T07:14:25.728Z,29.41
2018-08-04T07:15:25.708Z,29.90
2018-08-04T07:16:25.761Z,30.32
2018-08-04T07:17:25.790Z,30.61
2018-08-04T07:18:25.737Z,30.77
2018-08-04T07:19:25.739Z,31.01
2018-08-04T07:20:25.653Z,31.48
2018-08-04T07:21:25.642Z,31.92
2018-08-04T07:22:25.643Z,32.15
2018-08-04T07:23:25.629Z,32.18
2018-08-04T07:24:25.628Z,32.30
2018-08-04T07:25:25.601Z,32.28
2018-08-04T07:26:25.590Z,32.01
2018-08-04T07:27:25.576Z,31.89
2018-08-04T07:28:25.568Z,31.61
2018-08-04T07:29:25.557Z,31.07
2018-08-04T07:30:25.558Z,30.72
2018-08-04T07:31:25.534Z,30.83
2018-08-04T07:32:25.524Z,30.42
2018-08-04T07:33:25.528Z,30.43
2018-08-04T07:34:25.581Z,30.55
2018-08-04T07:35:25.492Z,30.60
2018-08-04T07:36:25.485Z,30.51
2018-08-04T07:37:25.474Z,30.27
2018-08-04T07:38:25.500Z,30.32
2018-08-04T07:39:25.452Z,30.46
2018-08-04T07:40:25.453Z,30.34
2018-08-04T07:41:25.432Z,30.60
2018-08-04T07:42:25.424Z,30.95
2018-08-04T07:43:25.412Z,30.92
2018-08-04T07:44:25.410Z,30.55
2018-08-04T07:45:25.394Z,30.82
2018-08-04T07:46:25.393Z,31.32
2018-08-04T07:47:25.372Z,31.88
2018-08-04T07:48:25.360Z,32.21
2018-08-04T07:49:25.352Z,32.45
2018-08-04T07:50:25.352Z,32.67
2018-08-04T07:51:25.327Z,32.99
2018-08-04T07:52:25.343Z,32.72
2018-08-04T07:53:25.308Z,32.62
2018-08-04T07:54:25.296Z,32.74
2018-08-04T07:55:25.289Z,33.03
2018-08-04T07:56:25.296Z,33.29
2018-08-04T07:57:25.267Z,33.69
2018-08-04T07:58:25.269Z,34.03
2018-08-04T07:59:25.254Z,34.09
2018-08-04T08:00:25.234Z,34.27
2018-08-04T08:01:25.225Z,34.43
2018-08-04T08:02:25.223Z,34.44
2018-08-04T08:03:25.207Z,34.15
2018-08-04T08:04:25.192Z,34.05
2018-08-04T08:05:25.185Z,33.95
2018-08-04T08:06:25.186Z,33.87
2018-08-04T08:07:25.175Z,34.02
2018-08-04T08:08:25.152Z,34.10
2018-08-04T08:09:25.143Z,34.00
2018-08-04T08:10:25.190Z,33.88
2018-08-04T08:11:25.129Z,34.15
2018-08-04T08:12:25.121Z,34.15
2018-08-04T08:13:25.115Z,34.32
2018-08-04T08:14:25.093Z,34.35
2018-08-04T08:15:25.080Z,33.78
2018-08-04T08:16:25.087Z,33.07
2018-08-04T08:17:25.063Z,33.15
2018-08-04T08:18:25.067Z,33.07
2018-08-04T08:19:25.074Z,33.06
2018-08-04T08:20:25.029Z,32.97
2018-08-04T08:21:25.022Z,32.63
2018-08-04T08:22:25.020Z,32.40
2018-08-04T08:23:25.001Z,32.40
2018-08-04T08:24:25.005Z,32.40
2018-08-04T08:25:24.978Z,32.40
2018-08-04T08:26:25.010Z,32.23
2018-08-04T08:27:24.961Z,32.23
2018-08-04T08:28:24.953Z,32.08
2018-08-04T08:29:24.937Z,32.19
2018-08-04T08:30:24.930Z,31.99
2018-08-04T08:31:25.007Z,32.26
2018-08-04T08:32:24.924Z,32.47
2018-08-04T08:33:24.899Z,32.66
2018-08-04T08:34:24.888Z,32.57
2018-08-04T08:35:24.877Z,32.63
2018-08-04T08:36:24.868Z,32.60
2018-08-04T08:37:24.876Z,32.59
2018-08-04T08:38:24.845Z,32.60
2018-08-04T08:39:24.835Z,32.60
2018-08-04T08:40:24.884Z,32.21
2018-08-04T08:41:24.817Z,32.38
2018-08-04T08:42:24.804Z,32.74
2018-08-04T08:43:24.815Z,32.78
2018-08-04T08:44:24.783Z,33.18
2018-08-04T08:45:24.773Z,33.37
2018-08-04T08:46:24.763Z,33.47
2018-08-04T08:47:24.756Z,33.49
2018-08-04T08:48:24.746Z,33.51
2018-08-04T08:49:24.775Z,33.78
2018-08-04T08:50:24.724Z,33.87
2018-08-04T08:51:24.716Z,33.78
2018-08-04T08:52:24.703Z,33.88
2018-08-04T08:53:24.972Z,33.68
2018-08-04T08:54:24.685Z,33.57
2018-08-04T08:55:24.701Z,33.60
2018-08-04T08:56:24.668Z,33.86
2018-08-04T08:57:24.654Z,33.95
2018-08-04T08:58:24.643Z,34.17
2018-08-04T08:59:24.633Z,34.21
2018-08-04T09:00:24.627Z,34.25
2018-08-04T09:01:24.634Z,34.35
2018-08-04T09:02:24.604Z,34.40
2018-08-04T09:03:24.613Z,34.32
2018-08-04T09:04:24.583Z,34.37
2018-08-04T09:05:24.572Z,34.62
2018-08-04T09:06:24.591Z,34.69
2018-08-04T09:07:24.555Z,34.62
2018-08-04T09:08:24.547Z,34.72
2018-08-04T09:09:24.536Z,34.77
2018-08-04T09:10:24.528Z,34.73
2018-08-04T09:11:24.516Z,34.77
2018-08-04T09:12:24.547Z,34.81
2018-08-04T09:13:24.496Z,34.59
2018-08-04T09:14:24.492Z,34.73
2018-08-04T09:15:24.474Z,34.70
2018-08-04T09:16:24.467Z,34.78
2018-08-04T09:17:24.459Z,34.81
2018-08-04T09:18:24.480Z,34.85
2018-08-04T09:19:24.435Z,34.91
2018-08-04T09:20:24.430Z,34.78
2018-08-04T09:21:24.416Z,34.46
2018-08-04T09:22:24.408Z,34.65
2018-08-04T09:23:24.398Z,34.80
2018-08-04T09:24:24.405Z,34.87
2018-08-04T09:25:24.376Z,34.72
2018-08-04T09:26:24.370Z,34.59
2018-08-04T09:27:24.359Z,34.52
2018-08-04T09:28:24.350Z,34.69
2018-08-04T09:29:24.340Z,34.73
2018-08-04T09:30:24.341Z,34.80
2018-08-04T09:31:24.322Z,34.91
2018-08-04T09:32:24.307Z,34.80
2018-08-04T09:33:24.315Z,34.81
2018-08-04T09:34:24.303Z,34.85
2018-08-04T09:35:24.279Z,34.87
2018-08-04T09:36:24.271Z,34.85
2018-08-04T09:37:24.263Z,34.97
2018-08-04T09:38:24.267Z,35.18
2018-08-04T09:39:24.242Z,35.33
2018-08-04T09:40:24.254Z,35.15
2018-08-04T09:41:24.224Z,35.19
2018-08-04T09:42:24.212Z,35.26
2018-08-04T09:43:24.244Z,35.28
2018-08-04T09:44:24.192Z,35.11
2018-08-04T09:45:24.184Z,35.09
2018-08-04T09:46:24.176Z,35.15
2018-08-04T09:47:24.164Z,35.02
2018-08-04T09:48:24.175Z,35.18
2018-08-04T09:49:24.156Z,35.21
2018-08-04T09:50:24.138Z,35.40
2018-08-04T09:51:24.127Z,35.62
2018-08-04T09:52:24.119Z,35.71
2018-08-04T09:53:24.107Z,35.74
2018-08-04T09:54:24.112Z,35.94
2018-08-04T09:55:24.088Z,35.85
2018-08-04T09:56:24.084Z,35.87
2018-08-04T09:57:24.070Z,36.05
2018-08-04T09:58:24.060Z,36.01
2018-08-04T09:59:24.090Z,36.01
2018-08-04T10:00:24.043Z,36.16
2018-08-04T10:01:24.032Z,36.13
2018-08-04T10:02:24.023Z,36.00
2018-08-04T10:03:24.017Z,36.00
2018-08-04T10:04:24.001Z,35.96
2018-08-04T10:05:24.004Z,35.96
2018-08-04T10:06:23.981Z,35.89
2018-08-04T10:07:23.973Z,35.70
2018-08-04T10:08:23.962Z,35.70
2018-08-04T10:09:23.953Z,35.85
2018-08-04T10:10:23.957Z,35.89
2018-08-04T10:11:23.956Z,35.74
2018-08-04T10:12:23.924Z,35.77
2018-08-04T10:13:23.918Z,35.80
2018-08-04T10:14:23.909Z,35.87
2018-08-04T10:15:23.911Z,35.99
2018-08-04T10:16:23.890Z,36.15
2018-08-04T10:17:23.876Z,36.32
2018-08-04T10:18:23.868Z,36.43
2018-08-04T10:19:23.859Z,36.62
2018-08-04T10:20:23.969Z,36.64
2018-08-04T10:21:23.837Z,36.54
2018-08-04T10:22:23.846Z,36.37
2018-08-04T10:23:23.831Z,36.43
2018-08-04T10:24:23.812Z,36.53
2018-08-04T10:25:23.802Z,36.65
2018-08-04T10:26:23.792Z,36.64
2018-08-04T10:27:23.802Z,36.50
2018-08-04T10:28:23.787Z,36.59
2018-08-04T10:29:23.765Z,36.29
2018-08-04T10:30:23.774Z,36.23
2018-08-04T10:31:23.743Z,36.29
2018-08-04T10:32:23.825Z,36.27
2018-08-04T10:33:23.728Z,36.29
2018-08-04T10:34:23.720Z,36.29
2018-08-04T10:35:23.711Z,36.27
2018-08-04T10:36:23.720Z,36.38
2018-08-04T10:37:23.710Z,36.53
2018-08-04T10:38:23.681Z,36.32
2018-08-04T10:39:23.692Z,36.05
2018-08-04T10:40:23.671Z,36.15
2018-08-04T10:41:23.652Z,36.13
2018-08-04T10:42:23.646Z,36.16
2018-08-04T10:43:23.657Z,36.25
2018-08-04T10:44:23.646Z,36.23
2018-08-04T10:45:23.616Z,36.34
2018-08-04T10:46:23.611Z,36.37
2018-08-04T10:47:23.599Z,36.37
2018-08-04T10:48:23.611Z,36.25
2018-08-04T10:49:23.636Z,36.34
2018-08-04T10:50:23.573Z,36.50
2018-08-04T10:51:23.579Z,36.47
2018-08-04T10:52:23.551Z,36.60
2018-08-04T10:53:23.546Z,36.57
2018-08-04T10:54:23.548Z,36.60
2018-08-04T10:55:23.525Z,36.73
2018-08-04T10:56:23.551Z,36.73
2018-08-04T10:57:23.526Z,36.78
2018-08-04T10:58:23.500Z,36.81
2018-08-04T10:59:23.492Z,37.06
2018-08-04T11:00:23.527Z,37.13
2018-08-04T11:01:23.475Z,36.91
2018-08-04T11:02:23.463Z,36.83
2018-08-04T11:03:23.454Z,36.60
2018-08-04T11:04:23.445Z,36.62
2018-08-04T11:05:23.438Z,36.78
2018-08-04T11:06:23.440Z,36.88
2018-08-04T11:07:23.421Z,36.80
2018-08-04T11:08:23.413Z,36.66
2018-08-04T11:09:23.404Z,36.62
2018-08-04T11:10:23.395Z,36.78
2018-08-04T11:11:23.423Z,36.72
2018-08-04T11:12:23.393Z,36.80
2018-08-04T11:13:23.366Z,36.85
2018-08-04T11:14:23.358Z,36.84
2018-08-04T11:15:23.355Z,36.80
2018-08-04T11:16:23.340Z,36.83
2018-08-04T11:17:23.368Z,36.87
2018-08-04T11:18:23.322Z,37.03
2018-08-04T11:19:23.312Z,36.93
2018-08-04T11:20:23.302Z,36.76
2018-08-04T11:21:23.297Z,36.94
2018-08-04T11:22:23.291Z,36.98
2018-08-04T11:23:23.289Z,36.95
2018-08-04T11:24:23.273Z,36.94
2018-08-04T11:25:23.260Z,36.94
2018-08-04T11:26:23.257Z,37.05
2018-08-04T11:27:23.240Z,37.06
2018-08-04T11:28:23.252Z,37.10
2018-08-04T11:29:23.224Z,37.25
2018-08-04T11:30:23.212Z,37.18
2018-08-04T11:31:23.215Z,37.00
2018-08-04T11:32:23.196Z,36.93
2018-08-04T11:33:23.228Z,37.07
2018-08-04T11:34:23.175Z,37.12
2018-08-04T11:35:23.167Z,37.07
2018-08-04T11:36:23.159Z,37.05
2018-08-04T11:37:23.145Z,37.02
2018-08-04T11:38:23.136Z,37.12
2018-08-04T11:39:23.164Z,37.00
2018-08-04T11:40:23.117Z,37.12
2018-08-04T11:41:23.109Z,36.91
2018-08-04T11:42:23.104Z,36.83
2018-08-04T11:43:23.087Z,36.85
2018-08-04T11:44:23.082Z,37.06
2018-08-04T11:45:23.090Z,37.13
2018-08-04T11:46:23.062Z,37.25
2018-08-04T11:47:23.055Z,37.27
2018-08-04T11:48:23.060Z,37.13
2018-08-04T11:49:23.045Z,36.94
2018-08-04T11:50:23.027Z,36.94
2018-08-04T11:51:23.017Z,37.06
2018-08-04T11:52:23.005Z,37.21
2018-08-04T11:53:23.011Z,37.25
2018-08-04T11:54:22.989Z,37.36
2018-08-04T11:55:22.995Z,37.37
2018-08-04T11:56:22.972Z,37.34
2018-08-04T11:57:22.968Z,37.27
2018-08-04T11:58:23.009Z,37.24
2018-08-04T11:59:22.944Z,37.41
2018-08-04T12:00:22.974Z,37.51
2018-08-04T12:01:22.921Z,37.43
2018-08-04T12:02:22.914Z,37.17
2018-08-04T12:03:22.904Z,36.85
2018-08-04T12:04:22.894Z,36.76
2018-08-04T12:05:22.943Z,36.94
2018-08-04T12:06:22.889Z,37.09
2018-08-04T12:07:22.864Z,37.37
2018-08-04T12:08:22.860Z,37.43
2018-08-04T12:09:22.860Z,37.47
2018-08-04T12:10:22.839Z,37.41
2018-08-04T12:11:22.842Z,37.28
2018-08-04T12:12:22.818Z,37.25
2018-08-04T12:13:22.807Z,37.17
2018-08-04T12:14:22.796Z,37.18
2018-08-04T12:15:22.802Z,37.24
2018-08-04T12:16:22.789Z,37.34
2018-08-04T12:17:22.786Z,37.41
2018-08-04T12:18:22.757Z,37.63
2018-08-04T12:19:22.750Z,37.60
2018-08-04T12:20:22.741Z,37.55
2018-08-04T12:21:22.732Z,37.57
2018-08-04T12:22:22.744Z,37.44
2018-08-04T12:23:22.713Z,37.44
2018-08-04T12:24:22.702Z,37.27
2018-08-04T12:25:22.721Z,37.10
2018-08-04T12:26:22.681Z,37.22
2018-08-04T12:27:22.674Z,37.34
2018-08-04T12:28:22.681Z,37.40
2018-08-04T12:29:22.666Z,37.37
2018-08-04T12:30:22.659Z,37.34
2018-08-04T12:31:22.691Z,37.57
2018-08-04T12:32:22.631Z,37.44
2018-08-04T12:33:22.615Z,37.47
2018-08-04T12:34:22.621Z,37.59
2018-08-04T12:35:22.601Z,37.57
2018-08-04T12:36:22.599Z,37.62
2018-08-04T12:37:22.580Z,37.49
2018-08-04T12:38:22.571Z,37.49
2018-08-04T12:39:22.599Z,37.51
2018-08-04T12:40:22.551Z,37.57
2018-08-04T12:41:22.540Z,37.40
2018-08-04T12:42:22.534Z,37.46
2018-08-04T12:43:22.521Z,37.43
2018-08-04T12:44:22.514Z,37.41
2018-08-04T12:45:22.543Z,37.39
2018-08-04T12:46:22.516Z,37.56
2018-08-04T12:47:22.503Z,37.36
2018-08-04T12:48:22.477Z,37.55
2018-08-04T12:49:22.467Z,37.41
2018-08-04T12:50:22.475Z,37.36
2018-08-04T12:51:22.449Z,37.43
2018-08-04T12:52:22.437Z,37.57